createdAt,value
2018-09-06T00:04:28.890Z,19.62
2018-09-06T00:09:23.294Z,19.70
2018-09-06T00:14:17.137Z,19.76
2018-09-06T00:19:10.206Z,19.87
2018-09-06T00:24:03.191Z,19.88
2018-09-06T00:28:56.217Z,19.99
2018-09-06T00:33:49.159Z,19.94
2018-09-06T00:38:42.283Z,19.88
2018-09-06T00:43:35.371Z,19.92
2018-09-06T00:48:28.472Z,19.88
2018-09-06T00:53:21.490Z,19.87
2018-09-06T00:58:14.493Z,19.84
2018-09-06T01:03:07.572Z,19.86
2018-09-06T01:08:00.623Z,19.93
2018-09-06T01:12:53.632Z,19.85
2018-09-06T01:17:46.882Z,19.75
2018-09-06T01:22:39.852Z,19.68
2018-09-06T01:27:32.971Z,19.65
2018-09-06T01:32:25.912Z,19.53
2018-09-06T01:37:18.939Z,19.46
2018-09-06T01:42:11.926Z,19.39
2018-09-06T01:47:04.868Z,19.34
2018-09-06T01:51:57.833Z,19.33
2018-09-06T01:56:51.078Z,19.39
2018-09-06T02:01:44.118Z,19.37
2018-09-06T02:06:37.118Z,19.37
2018-09-06T02:11:30.072Z,19.43
2018-09-06T02:16:23.004Z,19.46
2018-09-06T02:21:16.085Z,19.47
2018-09-06T02:26:09.190Z,19.48
2018-09-06T02:31:02.325Z,19.50
2018-09-06T02:35:55.241Z,19.54
2018-09-06T02:40:48.266Z,19.52
2018-09-06T02:45:42.568Z,19.38
2018-09-06T02:50:40.914Z,19.30
2018-09-06T02:55:34.177Z,19.28
2018-09-06T03:00:28.563Z,19.28
2018-09-06T03:05:21.955Z,19.35
2018-09-06T03:10:14.945Z,19.37
2018-09-06T03:15:08.005Z,19.38
2018-09-06T03:20:01.069Z,19.34
2018-09-06T03:24:54.275Z,19.32
2018-09-06T03:29:47.449Z,19.28
2018-09-06T03:34:40.490Z,19.28
2018-09-06T03:39:33.515Z,19.33
2018-09-06T03:44:26.621Z,19.37
2018-09-06T03:49:19.741Z,19.37
2018-09-06T03:54:12.859Z,19.38
2018-09-06T03:59:05.971Z,19.33
2018-09-06T04:03:59.213Z,19.47
2018-09-06T04:08:52.262Z,19.39
2018-09-06T04:13:45.255Z,19.39
2018-09-06T04:18:38.289Z,19.37
2018-09-06T04:23:31.478Z,19.41
2018-09-06T04:28:24.606Z,19.50
2018-09-06T04:33:17.811Z,19.56
2018-09-06T04:38:10.810Z,19.59
2018-09-06T04:43:03.818Z,19.64
2018-09-06T04:47:56.730Z,19.71
2018-09-06T04:52:49.797Z,19.89
2018-09-06T04:57:42.830Z,19.90
2018-09-06T05:02:35.752Z,19.97
2018-09-06T05:07:28.753Z,20.09
2018-09-06T05:12:21.808Z,19.93
2018-09-06T05:17:14.972Z,20.05
2018-09-06T05:22:08.075Z,20.07
2018-09-06T05:27:01.873Z,20.09
2018-09-06T05:31:55.103Z,20.21
2018-09-06T05:36:48.309Z,20.25
2018-09-06T05:41:41.910Z,20.21
2018-09-06T05:46:35.082Z,19.97
2018-09-06T05:51:28.263Z,19.93
2018-09-06T05:56:21.234Z,19.94
2018-09-06T06:01:14.680Z,20.15
2018-09-06T06:06:08.020Z,20.09
2018-09-06T06:11:01.157Z,20.05
2018-09-06T06:15:54.183Z,20.09
2018-09-06T06:20:47.247Z,20.15
2018-09-06T06:25:40.648Z,20.12
2018-09-06T06:30:33.635Z,20.16
2018-09-06T06:35:26.708Z,20.09
2018-09-06T06:40:20.327Z,20.14
2018-09-06T06:45:13.471Z,20.15
2018-09-06T06:50:07.171Z,20.30
2018-09-06T06:55:00.324Z,20.32
2018-09-06T06:59:53.416Z,20.33
2018-09-06T07:04:46.334Z,20.33
2018-09-06T07:09:39.431Z,20.52
2018-09-06T07:14:33.543Z,20.37
2018-09-06T07:19:26.601Z,20.65
2018-09-06T07:24:19.796Z,20.82
2018-09-06T07:29:13.059Z,20.84
2018-09-06T07:34:06.151Z,20.97
2018-09-06T07:38:59.243Z,20.58
2018-09-06T07:43:52.793Z,20.61
2018-09-06T07:48:45.908Z,20.76
2018-09-06T07:53:38.883Z,20.68
2018-09-06T07:58:32.070Z,20.73
2018-09-06T08:03:25.355Z,20.50
2018-09-06T08:08:18.502Z,20.50
2018-09-06T08:13:11.504Z,20.52
2018-09-06T08:18:04.767Z,20.41
2018-09-06T08:22:58.312Z,20.48
2018-09-06T08:27:51.472Z,20.57
2018-09-06T08:32:44.679Z,20.65
2018-09-06T08:37:37.734Z,20.63
2018-09-06T08:42:31.070Z,20.76
2018-09-06T08:47:26.305Z,20.72
2018-09-06T08:52:19.576Z,20.69
2018-09-06T08:57:12.719Z,20.93
2018-09-06T09:02:12.232Z,21.14
2018-09-06T09:07:05.326Z,21.19
2018-09-06T09:11:58.538Z,21.43
2018-09-06T09:16:51.613Z,21.43
2018-09-06T09:21:44.716Z,21.38
2018-09-06T09:26:37.843Z,21.67
2018-09-06T09:31:31.361Z,21.99
2018-09-06T09:36:24.358Z,22.35
2018-09-06T09:41:17.397Z,22.42
2018-09-06T09:51:02.779Z,22.78
2018-09-06T09:55:56.066Z,22.80
2018-09-06T10:00:49.147Z,22.92
2018-09-06T10:07:52.200Z,22.63
2018-09-06T10:12:45.319Z,22.38
2018-09-06T10:17:38.506Z,22.41
2018-09-06T10:22:32.193Z,22.50
2018-09-06T10:27:25.456Z,22.48
2018-09-06T10:32:18.585Z,22.44
2018-09-06T10:37:11.903Z,22.56
2018-09-06T10:42:05.599Z,22.70
2018-09-06T10:46:58.918Z,22.80
2018-09-06T10:51:52.119Z,23.05
2018-09-06T10:56:45.329Z,22.94
2018-09-06T11:01:38.489Z,22.96
2018-09-06T11:06:31.636Z,22.80
2018-09-06T11:11:24.893Z,22.80
2018-09-06T11:16:18.718Z,22.86
2018-09-06T11:21:11.807Z,22.78
2018-09-06T11:26:04.899Z,22.89
2018-09-06T11:30:57.926Z,23.31
2018-09-06T11:35:51.069Z,23.68
2018-09-06T11:40:44.274Z,23.95
2018-09-06T11:45:37.374Z,23.97
2018-09-06T11:50:30.495Z,23.91
2018-09-06T11:55:23.604Z,23.83
2018-09-06T12:00:16.970Z,23.71
2018-09-06T12:05:10.962Z,23.57
2018-09-06T12:10:04.408Z,24.15
2018-09-06T12:14:57.724Z,24.10
2018-09-06T12:19:51.039Z,23.99
2018-09-06T12:24:44.258Z,23.84
2018-09-06T12:29:37.590Z,23.77
2018-09-06T12:34:31.002Z,23.62
2018-09-06T12:39:24.140Z,23.53
2018-09-06T12:44:17.540Z,23.31
2018-09-06T12:49:11.606Z,23.12
2018-09-06T12:54:05.642Z,23.00
2018-09-06T12:58:58.824Z,22.71
2018-09-06T13:03:52.041Z,21.10
2018-09-06T13:08:45.060Z,20.12
2018-09-06T13:13:38.218Z,20.09
2018-09-06T13:18:31.431Z,20.55
2018-09-06T13:23:24.538Z,20.91
2018-09-06T13:28:17.662Z,21.26
2018-09-06T13:33:10.795Z,21.67
2018-09-06T13:38:03.950Z,22.01
2018-09-06T13:42:57.182Z,22.12
2018-09-06T13:47:50.234Z,22.38
2018-09-06T13:52:43.275Z,22.09
2018-09-06T13:57:36.494Z,20.85
2018-09-06T14:02:29.426Z,19.84
2018-09-06T14:07:22.462Z,19.70
2018-09-06T14:12:15.484Z,19.88
2018-09-06T14:17:08.568Z,19.88
2018-09-06T14:22:01.618Z,19.86
2018-09-06T14:26:54.717Z,20.06
2018-09-06T14:31:47.788Z,20.25
2018-09-06T14:36:42.048Z,19.99
2018-09-06T14:41:35.214Z,19.77
2018-09-06T14:46:29.333Z,19.60
2018-09-06T14:51:22.321Z,19.48
2018-09-06T14:56:15.446Z,19.38
2018-09-06T15:01:08.562Z,19.41
2018-09-06T15:06:02.760Z,19.56
2018-09-06T15:10:56.050Z,19.83
2018-09-06T15:15:49.280Z,20.56
2018-09-06T15:20:42.368Z,20.73
2018-09-06T15:25:35.437Z,20.58
2018-09-06T15:30:28.517Z,20.22
2018-09-06T15:35:21.904Z,20.11
2018-09-06T15:40:14.989Z,20.28
2018-09-06T15:45:08.291Z,20.38
2018-09-06T15:50:01.646Z,20.29
2018-09-06T15:54:54.863Z,20.21
2018-09-06T15:59:47.928Z,20.06
2018-09-06T16:04:40.927Z,20.17
2018-09-06T16:09:34.189Z,20.22
2018-09-06T16:14:27.315Z,20.19
2018-09-06T16:19:20.446Z,20.07
2018-09-06T16:24:13.619Z,20.20
2018-09-06T16:29:06.779Z,20.07
2018-09-06T16:33:59.792Z,19.65
2018-09-06T16:38:52.886Z,19.37
2018-09-06T16:43:45.993Z,19.28
2018-09-06T16:48:39.005Z,19.18
2018-09-06T16:53:31.979Z,19.12
2018-09-06T16:58:25.160Z,18.97
2018-09-06T17:03:18.230Z,18.98
2018-09-06T17:08:11.347Z,19.03
2018-09-06T17:13:04.762Z,19.02
2018-09-06T17:17:58.103Z,19.09
2018-09-06T17:22:51.223Z,19.26
2018-09-06T17:27:44.249Z,19.34
2018-09-06T17:32:39.356Z,19.33
2018-09-06T17:37:33.437Z,19.39
2018-09-06T17:42:28.127Z,19.49
2018-09-06T17:47:21.311Z,19.55
2018-09-06T17:52:14.523Z,19.65
2018-09-06T17:57:07.769Z,19.68
2018-09-06T18:02:01.143Z,19.67
2018-09-06T18:06:54.474Z,19.65
2018-09-06T18:11:47.679Z,19.61
2018-09-06T18:16:42.470Z,19.55
2018-09-06T18:21:35.847Z,19.62
2018-09-06T18:26:29.863Z,19.72
2018-09-06T18:31:23.571Z,19.85
2018-09-06T18:36:16.631Z,19.86
2018-09-06T18:41:10.238Z,19.78
2018-09-06T18:46:03.509Z,19.80
2018-09-06T18:50:56.499Z,19.83
2018-09-06T18:55:49.706Z,19.82
2018-09-06T19:00:42.975Z,19.77
2018-09-06T19:05:36.332Z,19.73
2018-09-06T19:10:30.075Z,19.69
2018-09-06T19:15:23.500Z,19.63
2018-09-06T19:20:17.067Z,19.47
2018-09-06T19:25:10.328Z,19.60
2018-09-06T19:30:08.426Z,19.54
2018-09-06T19:35:01.991Z,19.50
2018-09-06T19:39:55.327Z,19.47
2018-09-06T19:44:50.106Z,19.50
2018-09-06T19:49:43.435Z,19.49
2018-09-06T19:54:36.923Z,19.46
2018-09-06T19:59:29.910Z,19.51
2018-09-06T20:04:23.204Z,19.38
2018-09-06T20:09:16.253Z,19.44
2018-09-06T20:14:09.316Z,19.43
2018-09-06T20:19:02.537Z,19.53
2018-09-06T20:23:55.836Z,19.63
2018-09-06T20:28:48.947Z,19.46
2018-09-06T20:33:42.162Z,19.40
2018-09-06T20:38:35.347Z,19.18
2018-09-06T20:43:28.341Z,19.04
2018-09-06T20:48:21.575Z,18.99
2018-09-06T20:53:14.785Z,19.05
2018-09-06T20:58:08.180Z,18.99
2018-09-06T21:03:01.256Z,18.94
2018-09-06T21:07:54.451Z,18.85
2018-09-06T21:12:47.911Z,18.78
2018-09-06T21:17:40.938Z,18.75
2018-09-06T21:22:34.525Z,18.84
2018-09-06T21:27:27.898Z,19.09
2018-09-06T21:32:21.217Z,19.07
2018-09-06T21:37:14.376Z,18.91
2018-09-06T21:42:07.665Z,18.92
2018-09-06T21:47:00.738Z,19.02
2018-09-06T21:51:53.975Z,19.09
2018-09-06T21:56:47.339Z,19.16
2018-09-06T22:01:40.946Z,18.83
2018-09-06T22:06:34.535Z,18.39
2018-09-06T22:11:27.557Z,18.36
2018-09-06T22:16:20.584Z,18.50
2018-09-06T22:21:14.368Z,18.77
2018-09-06T22:26:07.407Z,18.79
2018-09-06T22:31:00.590Z,18.62
2018-09-06T22:35:53.825Z,18.51
2018-09-06T22:40:47.020Z,18.28
2018-09-06T22:45:40.095Z,18.35
2018-09-06T22:50:33.155Z,18.78
2018-09-06T22:55:26.895Z,19.21
2018-09-06T23:00:20.754Z,19.38
2018-09-06T23:05:14.265Z,19.53
2018-09-06T23:10:08.625Z,19.59
2018-09-06T23:15:01.632Z,19.55
2018-09-06T23:19:54.825Z,19.19
2018-09-06T23:24:47.834Z,18.61
2018-09-06T23:29:40.737Z,18.29
2018-09-06T23:34:36.173Z,18.14
2018-09-06T23:39:29.130Z,18.09
2018-09-06T23:44:23.324Z,18.09
2018-09-06T23:49:16.425Z,17.90
2018-09-06T23:54:09.646Z,17.68
2018-09-06T23:59:02.907Z,17.57
